Friday, September 21, 2018, 9:26 PM EDT
Back to Local

KITH, Ithaca, Ithaca Tompkins Regional Airport

Location: Ithaca, NY, United States Lat: 42.491
Local Time: 9:26 PM EDT ( 1:26 GMT) Lon: -76.458
Time Zone: US/Eastern Elev: 1099 ft

Show me the last for .
Show Decoded

2018-09-21 20:56 METAR KITH 220056Z 19005KT 4SM RA BR BKN017 OVC080 20/19 A2992 RMK AO2 LTG DSNT
                 E AND SW TSB16E34RAB28 SLP127 P0008 T02000194 =
2018-09-21 20:40 METAR KITH 220040Z 20011G18KT 10SM RA OVC014 21/19 A2991 RMK AO2 LTG DSNT N AND
                 NE TSB16E34RAB28 TS NW P0000 =
2018-09-21 20:22 METAR KITH 220022Z 18015G20KT 10SM VCTS OVC014 21/19 A2988 RMK AO2 LTG DSNT
                 NW-NE TSB16 TS NW =
2018-09-21 19:56 METAR KITH 212356Z 17011G21KT 10SM OVC014 21/19 A2986 RMK AO2 LTG DSNT W-N
                 SLP107 T02110189 10239 20211 55009 =
2018-09-21 19:41 METAR KITH 212341Z 17015G20KT 10SM OVC014 21/19 A2985 RMK AO2 LTG DSNT W-N =
2018-09-21 18:56 METAR KITH 212256Z 17014G19KT 10SM BKN016 21/19 A2985 RMK AO2 SLP102 T02110189 =
2018-09-21 17:56 METAR KITH 212156Z 17014G26KT 10SM BKN016 22/19 A2986 RMK AO2 PK WND 19026/2147
                 SLP106 T02220189 =
2018-09-21 16:56 METAR KITH 212056Z 17018G27KT 10SM BKN016 22/19 A2989 RMK AO2 PK WND 16027/2053
                 SLP116 T02220189 58025 =
2018-09-21 15:56 METAR KITH 211956Z 18015G24KT 10SM BKN016 23/19 A2992 RMK AO2 SLP125 T02330194 =
2018-09-21 14:56 METAR KITH 211856Z 17015G25KT 10SM BKN016 22/19 A2995 RMK AO2 SLP135 T02220194 =
2018-09-21 13:56 METAR KITH 211756Z 17013G20KT 10SM BKN016 22/19 A2997 RMK AO2 SLP142 T02220194
                 10222 20194 58027 =
2018-09-21 12:56 METAR KITH 211656Z 17015G19KT 10SM OVC014 21/19 A3000 RMK AO2 SLP154 T02110189 =
2018-09-21 11:56 METAR KITH 211556Z 16013G19KT 10SM OVC012 21/18 A3003 RMK AO2 SLP162 T02060183 =
2018-09-21 10:56 METAR KITH 211456Z 17010G17KT 10SM OVC012 20/18 A3005 RMK AO2 SLP172 T02000178
                 56013 =
2018-09-21 09:56 METAR KITH 211356Z 15012G18KT 10SM OVC012 20/18 A3006 RMK AO2 SLP173 T02000178 =
2018-09-21 08:56 METAR KITH 211256Z 17012G22KT 10SM OVC010 19/18 A3008 RMK AO2 SLP180 T01940178 =
2018-09-21 07:56 METAR KITH 211156Z 16013G18KT 10SM OVC010 19/18 A3009 RMK AO2 SLP186 T01940178
                 10194 20189 58003 =
2018-09-21 06:56 METAR KITH 211056Z 16012G21KT 10SM OVC010 19/18 A3011 RMK AO2 SLP190 T01940178 =
2018-09-21 06:30 METAR KITH 211030Z 17012G20KT 10SM OVC012 19/18 A3010 RMK AO2 =
2018-09-21 05:56 METAR KITH 210956Z AUTO 17011KT 10SM OVC012 19/18 A3010 RMK AO2 SLP188 T01940178
                 =
2018-09-21 04:56 METAR KITH 210856Z AUTO 16009G19KT 10SM BKN012 OVC020 19/18 A3010 RMK AO2 SLP187
                 T01940178 56008 =
2018-09-21 04:07 METAR KITH 210807Z AUTO 16013G20KT 10SM BKN012 OVC020 19/17 A3011 RMK AO2 =
2018-09-21 03:56 METAR KITH 210756Z AUTO 16015G19KT 10SM SCT012 OVC022 19/17 A3011 RMK AO2 SLP189
                 T01890172 =
2018-09-21 02:56 METAR KITH 210656Z AUTO 16015KT 10SM FEW014 OVC022 19/17 A3011 RMK AO2 SLP190
                 T01890172 =
2018-09-21 01:56 METAR KITH 210556Z AUTO 16014G18KT 10SM OVC018 19/17 A3013 RMK AO2 SLP197
                 T01940172 10200 20183 57008 =
2018-09-21 01:13 METAR KITH 210513Z AUTO 15012KT 10SM BKN016 BKN070 OVC120 19/17 A3014 RMK AO2 =
2018-09-21 01:06 METAR KITH 210506Z AUTO 16011KT 10SM SCT014 BKN070 OVC120 19/17 A3014 RMK AO2 =
2018-09-21 00:56 METAR KITH 210456Z AUTO 16012KT 10SM BKN014 OVC065 19/17 A3014 RMK AO2 SLP201
                 T01890172 402330083 =
2018-09-21 00:54 METAR KITH 210454Z AUTO 15011KT 10SM BKN014 OVC065 19/17 A3014 RMK AO2 402330083
                 =
2018-09-20 23:56 METAR KITH 210356Z AUTO 14009KT 10SM BKN065 18/17 A3015 RMK AO2 SLP206 T01830167
                 =
2018-09-20 22:56 METAR KITH 210256Z AUTO 12007KT 10SM BKN110 19/17 A3016 RMK AO2 SLP209 T01890172
                 50002 =
2018-09-20 21:56 METAR KITH 210156Z 14006KT 10SM CLR 19/17 A3017 RMK AO2 SLP215 T01940167 =

Support USWX by starting your Amazon purchase here.